createdAt,value
2023-04-05T00:02:19.501Z,99.90
2023-04-05T00:04:52.264Z,99.90
2023-04-05T00:07:21.468Z,99.90
2023-04-05T00:09:50.161Z,99.90
2023-04-05T00:12:18.039Z,99.90
2023-04-05T00:14:47.271Z,99.90
2023-04-05T00:17:15.326Z,99.90
2023-04-05T00:19:45.053Z,99.90
2023-04-05T00:22:12.875Z,99.90
2023-04-05T00:24:43.456Z,99.90
2023-04-05T00:27:11.486Z,99.90
2023-04-05T00:29:39.253Z,99.90
2023-04-05T00:32:08.709Z,99.90
2023-04-05T00:34:36.986Z,99.90
2023-04-05T00:37:04.812Z,99.90
2023-04-05T00:39:32.578Z,99.90
2023-04-05T00:42:01.122Z,99.90
2023-04-05T00:44:29.017Z,99.90
2023-04-05T00:46:57.207Z,99.90
2023-04-05T00:49:26.421Z,99.90
2023-04-05T00:51:54.291Z,99.90
2023-04-05T00:54:22.102Z,99.90
2023-04-05T00:56:53.098Z,99.90
2023-04-05T00:59:21.295Z,99.90
2023-04-05T01:01:55.117Z,99.90
2023-04-05T01:04:26.201Z,99.90
2023-04-05T01:07:08.701Z,99.90
2023-04-05T01:09:46.742Z,99.90
2023-04-05T01:12:22.086Z,99.90
2023-04-05T01:14:52.565Z,99.90
2023-04-05T01:17:22.681Z,99.90
2023-04-05T01:19:53.455Z,99.90
2023-04-05T01:23:14.668Z,99.90
2023-04-05T01:26:05.906Z,99.90
2023-04-05T01:28:50.796Z,99.90
2023-04-05T01:31:26.385Z,99.90
2023-04-05T01:33:58.408Z,99.90
2023-04-05T01:36:32.686Z,99.90
2023-04-05T01:39:03.556Z,99.90
2023-04-05T01:41:31.624Z,99.90
2023-04-05T01:43:59.435Z,99.90
2023-04-05T01:46:28.588Z,99.90
2023-04-05T01:48:56.448Z,99.90
2023-04-05T01:51:24.264Z,99.90
2023-04-05T01:53:52.050Z,99.90
2023-04-05T01:56:19.846Z,99.90
2023-04-05T01:58:47.652Z,99.90
2023-04-05T02:01:15.536Z,99.90
2023-04-05T02:03:44.799Z,99.90
2023-04-05T02:06:12.645Z,99.90
2023-04-05T02:08:40.530Z,99.90
2023-04-05T02:11:08.295Z,99.90
2023-04-05T02:13:36.270Z,99.90
2023-04-05T02:16:04.166Z,99.90
2023-04-05T02:18:32.163Z,99.90
2023-04-05T02:21:05.267Z,99.90
2023-04-05T02:23:33.889Z,99.90
2023-04-05T02:26:02.233Z,99.90
2023-04-05T02:28:30.146Z,99.90
2023-04-05T02:30:57.948Z,99.90
2023-04-05T02:33:25.848Z,99.90
2023-04-05T02:35:54.428Z,99.90
2023-04-05T02:38:23.593Z,99.90
2023-04-05T02:40:51.444Z,99.90
2023-04-05T02:43:19.256Z,99.90
2023-04-05T02:45:47.252Z,99.90
2023-04-05T02:48:15.233Z,99.90
2023-04-05T02:50:43.278Z,99.90
2023-04-05T02:53:11.210Z,99.90
2023-04-05T02:55:41.973Z,99.90
2023-04-05T02:58:10.083Z,99.90
2023-04-05T03:00:38.377Z,99.90
2023-04-05T03:03:06.427Z,99.90
2023-04-05T03:05:34.243Z,99.90
2023-04-05T03:08:02.332Z,99.90
2023-04-05T03:10:34.900Z,99.90
2023-04-05T03:13:04.107Z,99.90
2023-04-05T03:15:33.560Z,99.90
2023-04-05T03:18:01.336Z,99.90
2023-04-05T03:20:29.216Z,99.90
2023-04-05T03:22:57.695Z,99.90
2023-04-05T03:25:25.947Z,99.90
2023-04-05T03:27:53.872Z,99.90
2023-04-05T03:30:23.309Z,99.90
2023-04-05T03:32:51.254Z,99.90
2023-04-05T03:35:19.213Z,99.90
2023-04-05T03:37:47.103Z,99.90
2023-04-05T03:40:15.106Z,99.90
2023-04-05T03:42:44.402Z,99.90
2023-04-05T03:45:12.639Z,99.90
2023-04-05T03:47:41.858Z,99.90
2023-04-05T03:50:10.456Z,99.90
2023-04-05T03:52:38.269Z,99.90
2023-04-05T03:55:06.860Z,99.90
2023-04-05T03:57:34.750Z,99.90
2023-04-05T04:00:03.955Z,99.90
2023-04-05T04:02:31.878Z,99.90
2023-04-05T04:05:01.160Z,99.90
2023-04-05T04:07:28.959Z,99.90
2023-04-05T04:09:56.888Z,99.90
2023-04-05T04:12:24.723Z,99.90
2023-04-05T04:14:52.525Z,99.90
2023-04-05T04:17:28.127Z,99.90
2023-04-05T04:19:56.168Z,99.90
2023-04-05T04:22:32.917Z,99.90
2023-04-05T04:25:02.915Z,99.90
2023-04-05T04:27:30.808Z,99.90
2023-04-05T04:30:01.834Z,99.90
2023-04-05T04:32:47.725Z,99.90
2023-04-05T04:35:18.153Z,99.90
2023-04-05T04:37:53.087Z,99.90
2023-04-05T04:40:21.240Z,99.90
2023-04-05T04:42:49.610Z,99.90
2023-04-05T04:45:18.700Z,99.90
2023-04-05T04:47:48.073Z,99.90
2023-04-05T04:50:16.800Z,99.90
2023-04-05T04:52:44.596Z,99.90
2023-04-05T04:55:14.364Z,99.90
2023-04-05T04:57:42.529Z,99.90
2023-04-05T05:00:15.526Z,99.90
2023-04-05T05:02:44.056Z,99.90
2023-04-05T05:05:12.610Z,99.90
2023-04-05T05:07:42.502Z,99.90
2023-04-05T05:10:11.466Z,99.90
2023-04-05T05:12:40.578Z,99.90
2023-04-05T05:15:09.820Z,99.90
2023-04-05T05:17:38.961Z,99.90
2023-04-05T05:20:09.531Z,99.90
2023-04-05T05:22:37.871Z,99.90
2023-04-05T05:25:07.026Z,99.90
2023-04-05T05:27:34.917Z,99.90
2023-04-05T05:30:04.256Z,99.90
2023-04-05T05:32:32.193Z,99.90
2023-04-05T05:34:59.976Z,99.90
2023-04-05T05:37:31.551Z,99.90
2023-04-05T05:39:59.899Z,99.90
2023-04-05T05:42:28.118Z,99.90
2023-04-05T05:44:55.942Z,99.90
2023-04-05T05:47:25.142Z,99.90
2023-04-05T05:49:52.938Z,99.90
2023-04-05T05:52:21.136Z,99.90
2023-04-05T05:54:49.130Z,99.90
2023-04-05T05:57:16.993Z,99.90
2023-04-05T05:59:44.755Z,99.90
2023-04-05T06:02:13.489Z,99.90
2023-04-05T06:04:42.801Z,99.90
2023-04-05T06:07:11.122Z,99.90
2023-04-05T06:09:38.974Z,99.90
2023-04-05T06:12:07.145Z,99.90
2023-04-05T06:14:34.950Z,99.90
2023-04-05T06:17:02.723Z,99.90
2023-04-05T06:19:30.569Z,99.90
2023-04-05T06:22:00.786Z,99.90
2023-04-05T06:24:31.771Z,99.90
2023-04-05T06:26:59.640Z,99.90
2023-04-05T06:29:27.445Z,99.90
2023-04-05T06:31:56.450Z,99.90
2023-04-05T06:34:24.298Z,99.90
2023-04-05T06:36:52.074Z,99.90
2023-04-05T06:39:21.637Z,99.90
2023-04-05T06:41:49.383Z,99.90
2023-04-05T06:44:17.169Z,99.90
2023-04-05T06:46:44.947Z,99.90
2023-04-05T06:49:12.728Z,99.90
2023-04-05T06:51:40.519Z,99.90
2023-04-05T06:54:08.274Z,99.90
2023-04-05T06:56:37.354Z,99.90
2023-04-05T06:59:05.694Z,99.90
2023-04-05T07:01:33.762Z,99.90
2023-04-05T07:04:01.688Z,99.90
2023-04-05T07:06:29.500Z,99.90
2023-04-05T07:08:57.294Z,99.90
2023-04-05T07:11:25.085Z,99.90
2023-04-05T07:13:54.244Z,99.90
2023-04-05T07:16:23.746Z,99.90
2023-04-05T07:18:51.791Z,99.90
2023-04-05T07:21:19.839Z,99.90
2023-04-05T07:23:47.600Z,99.90
2023-04-05T07:26:15.409Z,99.90
2023-04-05T07:28:43.200Z,99.90
2023-04-05T07:31:12.260Z,99.90
2023-04-05T07:33:40.040Z,99.90
2023-04-05T07:36:08.727Z,99.90
2023-04-05T07:38:36.619Z,99.90
2023-04-05T07:41:04.440Z,99.90
2023-04-05T07:43:32.223Z,99.90
2023-04-05T07:46:03.545Z,99.90
2023-04-05T07:48:32.989Z,99.90
2023-04-05T07:51:06.036Z,99.90
2023-04-05T07:53:34.302Z,99.90
2023-04-05T07:56:05.121Z,99.90
2023-04-05T07:58:33.264Z,99.90
2023-04-05T08:01:01.761Z,99.80
2023-04-05T08:03:30.532Z,96.20
2023-04-05T08:05:59.803Z,95.70
2023-04-05T08:08:27.737Z,93.70
2023-04-05T08:10:55.730Z,92.40
2023-04-05T08:13:23.624Z,89.80
2023-04-05T08:15:51.572Z,88.40
2023-04-05T08:18:19.441Z,90.20
2023-04-05T08:20:52.354Z,89.80
2023-04-05T08:23:21.493Z,82.30
2023-04-05T08:25:49.439Z,81.80
2023-04-05T08:28:17.218Z,81.70
2023-04-05T08:30:45.311Z,80.10
2023-04-05T08:33:13.252Z,80.20
2023-04-05T08:35:42.993Z,77.90
2023-04-05T08:38:12.199Z,77.70
2023-04-05T08:40:43.525Z,77.10
2023-04-05T08:43:14.825Z,80.00
2023-04-05T08:45:48.494Z,78.70
2023-04-05T08:48:16.574Z,76.00
2023-04-05T08:50:50.812Z,78.50
2023-04-05T08:53:18.796Z,73.50
2023-04-05T08:55:51.937Z,72.20
2023-04-05T08:58:23.222Z,73.70
2023-04-05T09:00:51.868Z,73.00
2023-04-05T09:03:23.485Z,74.40
2023-04-05T09:05:53.436Z,73.40
2023-04-05T09:08:22.266Z,70.20
2023-04-05T09:10:52.438Z,68.90
2023-04-05T09:13:21.129Z,68.70
2023-04-05T09:15:49.274Z,66.60
2023-04-05T09:18:26.355Z,67.10
2023-04-05T09:20:58.161Z,68.00
2023-04-05T09:23:26.172Z,65.60
2023-04-05T09:25:55.292Z,67.60
2023-04-05T09:28:23.084Z,63.60
2023-04-05T09:30:50.908Z,63.00
2023-04-05T09:33:20.950Z,62.40
2023-04-05T09:35:51.923Z,64.00
2023-04-05T09:38:19.761Z,63.50
2023-04-05T09:40:48.781Z,64.00
2023-04-05T09:43:37.858Z,64.30
2023-04-05T09:46:05.792Z,63.50
2023-04-05T09:48:47.474Z,62.00
2023-04-05T09:51:16.085Z,61.80
2023-04-05T09:53:59.234Z,61.30
2023-04-05T09:56:27.300Z,63.10
2023-04-05T09:59:00.473Z,59.10
2023-04-05T10:01:29.732Z,68.70
2023-04-05T10:03:59.859Z,62.80
2023-04-05T10:06:38.113Z,58.90
2023-04-05T10:09:06.683Z,59.30
2023-04-05T10:11:35.553Z,59.90
2023-04-05T10:14:06.035Z,60.20
2023-04-05T10:16:46.283Z,65.00
2023-04-05T10:19:19.159Z,58.00
2023-04-05T10:21:47.635Z,60.80
2023-04-05T10:24:24.544Z,60.90
2023-04-05T10:27:05.325Z,64.20
2023-04-05T10:29:44.766Z,59.00
2023-04-05T10:32:19.298Z,58.80
2023-04-05T10:34:57.214Z,59.70
2023-04-05T10:37:36.958Z,62.80
2023-04-05T10:40:09.305Z,62.50
2023-04-05T10:42:42.978Z,63.60
2023-04-05T10:45:15.575Z,63.70
2023-04-05T10:47:48.019Z,63.20
2023-04-05T10:50:22.618Z,59.50
2023-04-05T10:52:52.463Z,65.00
2023-04-05T10:55:20.999Z,62.20
2023-04-05T10:57:50.954Z,63.00
2023-04-05T11:00:20.824Z,64.30
2023-04-05T11:02:54.653Z,59.00
2023-04-05T11:05:35.813Z,60.10
2023-04-05T11:08:08.175Z,61.90
2023-04-05T11:10:37.933Z,60.50
2023-04-05T11:13:08.284Z,61.40
2023-04-05T11:15:37.912Z,61.10
2023-04-05T11:18:11.421Z,59.20
2023-04-05T11:20:44.636Z,57.60
2023-04-05T11:23:13.436Z,64.10
2023-04-05T11:25:46.530Z,59.80
2023-04-05T11:28:25.094Z,64.30
2023-04-05T11:30:57.099Z,60.20
2023-04-05T11:33:38.204Z,59.40
2023-04-05T11:36:06.862Z,60.00
2023-04-05T11:38:34.864Z,61.50
2023-04-05T11:41:17.386Z,59.80
2023-04-05T11:43:47.347Z,58.90
2023-04-05T11:46:16.586Z,59.10
2023-04-05T11:48:44.513Z,59.00
2023-04-05T11:51:12.373Z,60.90
2023-04-05T11:53:40.185Z,59.60
2023-04-05T11:56:10.045Z,61.50
2023-04-05T11:58:38.045Z,62.50
2023-04-05T12:01:07.541Z,61.50
2023-04-05T12:03:37.857Z,60.90
2023-04-05T12:06:07.745Z,62.10
2023-04-05T12:08:42.547Z,61.00
2023-04-05T12:11:11.555Z,60.50
2023-04-05T12:13:40.174Z,61.00
2023-04-05T12:16:09.939Z,60.20
2023-04-05T12:18:39.557Z,60.60
2023-04-05T12:21:09.223Z,61.40
2023-04-05T12:23:38.273Z,62.00
2023-04-05T12:26:08.085Z,62.60
2023-04-05T12:28:52.651Z,61.50
2023-04-05T12:31:38.931Z,60.40
2023-04-05T12:34:09.230Z,61.70
2023-04-05T12:36:38.744Z,64.60
2023-04-05T12:39:08.387Z,62.80
2023-04-05T12:41:37.322Z,63.00
2023-04-05T12:44:06.685Z,62.80
2023-04-05T12:46:41.478Z,63.30
2023-04-05T12:49:13.549Z,63.20
2023-04-05T12:51:44.102Z,63.70
2023-04-05T12:54:14.003Z,63.20
2023-04-05T12:56:42.001Z,62.00
2023-04-05T12:59:10.241Z,61.90
2023-04-05T13:01:38.699Z,63.90
2023-04-05T13:04:15.613Z,64.10
2023-04-05T13:06:47.252Z,63.30
2023-04-05T13:09:15.795Z,63.70
2023-04-05T13:11:43.603Z,64.00
2023-04-05T13:14:11.530Z,63.10
2023-04-05T13:16:39.335Z,65.50
2023-04-05T13:19:07.160Z,62.20
2023-04-05T13:21:34.901Z,63.30
2023-04-05T13:24:04.004Z,63.30
2023-04-05T13:26:31.872Z,64.00
2023-04-05T13:28:59.696Z,63.50
2023-04-05T13:31:28.052Z,63.40
2023-04-05T13:33:55.890Z,63.40
2023-04-05T13:36:23.654Z,66.40
2023-04-05T13:38:51.426Z,63.80
2023-04-05T13:41:21.182Z,63.40
2023-04-05T13:43:48.956Z,62.70
2023-04-05T13:46:16.851Z,64.60
2023-04-05T13:48:44.651Z,64.50
2023-04-05T13:51:12.523Z,64.30
2023-04-05T13:53:40.394Z,65.30
2023-04-05T13:56:08.682Z,62.10
2023-04-05T13:58:37.754Z,62.40
2023-04-05T14:01:05.888Z,65.10
2023-04-05T14:03:33.843Z,62.10
2023-04-05T14:06:01.742Z,61.80
2023-04-05T14:08:29.513Z,62.50
2023-04-05T14:10:57.334Z,64.00
2023-04-05T14:13:25.274Z,63.50
2023-04-05T14:15:54.375Z,64.80
2023-04-05T14:18:22.178Z,64.80
2023-04-05T14:20:49.937Z,62.70
2023-04-05T14:23:17.689Z,64.20
2023-04-05T14:25:45.522Z,65.00
2023-04-05T14:28:13.338Z,66.40
2023-04-05T14:30:41.286Z,65.60
2023-04-05T14:33:10.549Z,64.30
2023-04-05T14:35:38.436Z,62.60
2023-04-05T14:38:06.253Z,63.70
2023-04-05T14:40:34.082Z,64.40
2023-04-05T14:43:01.889Z,66.50
2023-04-05T14:45:29.874Z,64.90
2023-04-05T14:47:57.741Z,64.50
2023-04-05T14:50:27.397Z,66.10
2023-04-05T14:52:55.311Z,64.80
2023-04-05T14:55:23.067Z,65.50
2023-04-05T14:57:51.034Z,65.40
2023-04-05T15:00:19.665Z,65.50
2023-04-05T15:02:47.629Z,63.80
2023-04-05T15:05:15.506Z,66.10
2023-04-05T15:07:44.642Z,64.30
2023-04-05T15:10:12.579Z,64.60
2023-04-05T15:12:40.373Z,66.20
2023-04-05T15:15:09.700Z,64.10
2023-04-05T15:17:37.499Z,63.80
2023-04-05T15:20:06.039Z,64.80
2023-04-05T15:22:35.601Z,65.10
2023-04-05T15:25:05.731Z,63.80
2023-04-05T15:27:33.500Z,66.00
2023-04-05T15:30:01.335Z,65.90
2023-04-05T15:32:30.053Z,64.00
2023-04-05T15:34:57.936Z,64.10
2023-04-05T15:37:25.863Z,64.40
2023-04-05T15:39:53.670Z,64.60
2023-04-05T15:42:22.878Z,63.70
2023-04-05T15:44:51.060Z,65.10
2023-04-05T15:47:19.208Z,65.20
2023-04-05T15:49:48.530Z,63.90
2023-04-05T15:52:16.411Z,66.30
2023-04-05T15:54:44.278Z,63.10
2023-04-05T15:57:12.062Z,63.50
2023-04-05T15:59:41.272Z,62.80
2023-04-05T16:02:09.796Z,63.60
2023-04-05T16:04:39.238Z,61.60
2023-04-05T16:07:07.608Z,61.70
2023-04-05T16:09:35.426Z,60.60
2023-04-05T16:12:03.535Z,62.20
2023-04-05T16:14:31.473Z,59.80
2023-04-05T16:17:02.949Z,59.70
2023-04-05T16:19:31.457Z,59.40
2023-04-05T16:22:00.044Z,60.70
2023-04-05T16:24:28.215Z,57.20
2023-04-05T16:26:56.848Z,57.30
2023-04-05T16:29:24.630Z,57.40
2023-04-05T16:31:52.471Z,56.60
2023-04-05T16:34:21.956Z,58.70
2023-04-05T16:36:49.718Z,57.80
2023-04-05T16:39:17.525Z,58.20
2023-04-05T16:41:45.322Z,60.40
2023-04-05T16:44:13.094Z,59.70
2023-04-05T16:46:41.087Z,61.20
2023-04-05T16:49:08.874Z,59.70
2023-04-05T16:51:38.047Z,58.50
2023-04-05T16:54:05.948Z,58.50
2023-04-05T16:56:33.753Z,58.70
2023-04-05T16:59:02.253Z,58.30
2023-04-05T17:01:31.682Z,59.40
2023-04-05T17:04:00.044Z,60.90
2023-04-05T17:06:28.614Z,62.20
2023-04-05T17:08:57.758Z,60.50
2023-04-05T17:11:28.224Z,58.90
2023-04-05T17:13:56.077Z,58.00
2023-04-05T17:16:24.037Z,57.30
2023-04-05T17:18:52.007Z,57.90
2023-04-05T17:21:20.100Z,59.10
2023-04-05T17:23:47.997Z,58.70
2023-04-05T17:26:17.110Z,57.20
2023-04-05T17:28:44.913Z,58.30
2023-04-05T17:31:12.713Z,59.40
2023-04-05T17:33:40.705Z,58.00
2023-04-05T17:36:08.846Z,58.40
2023-04-05T17:38:36.617Z,59.30
2023-04-05T17:41:04.615Z,57.30
2023-04-05T17:43:33.727Z,58.50
2023-04-05T17:46:01.818Z,58.10
2023-04-05T17:48:29.866Z,57.90
2023-04-05T17:50:57.816Z,60.10
2023-04-05T17:53:25.686Z,61.60
2023-04-05T17:55:56.510Z,62.30
2023-04-05T17:58:24.305Z,64.00
2023-04-05T18:00:53.513Z,64.20
2023-04-05T18:03:21.663Z,63.40
2023-04-05T18:05:52.190Z,65.50
2023-04-05T18:08:20.325Z,65.60
2023-04-05T18:10:48.166Z,69.50
2023-04-05T18:13:16.426Z,70.90
2023-04-05T18:15:44.211Z,72.20
2023-04-05T18:18:13.381Z,71.20
2023-04-05T18:20:41.443Z,71.20
2023-04-05T18:23:09.280Z,71.70
2023-04-05T18:25:37.404Z,72.30
2023-04-05T18:28:19.409Z,73.60
2023-04-05T18:30:51.102Z,74.20
2023-04-05T18:33:22.290Z,74.10
2023-04-05T18:35:50.792Z,73.80
2023-04-05T18:38:18.835Z,75.30
2023-04-05T18:40:46.736Z,75.80
2023-04-05T18:43:14.888Z,76.70
2023-04-05T18:45:42.740Z,76.90
2023-04-05T18:48:11.459Z,77.70
2023-04-05T18:50:40.744Z,78.50
2023-04-05T18:53:09.354Z,78.30
2023-04-05T18:55:37.451Z,78.90
2023-04-05T18:58:05.528Z,79.10
2023-04-05T19:00:33.323Z,78.60
2023-04-05T19:03:01.771Z,78.00
2023-04-05T19:05:29.825Z,77.90
2023-04-05T19:07:58.961Z,78.10
2023-04-05T19:10:26.753Z,79.20
2023-04-05T19:12:54.557Z,79.60
2023-04-05T19:15:22.322Z,80.40
2023-04-05T19:17:50.240Z,80.30
2023-04-05T19:20:18.209Z,80.30
2023-04-05T19:22:45.960Z,80.20
2023-04-05T19:25:15.388Z,80.30
2023-04-05T19:27:43.490Z,80.70
2023-04-05T19:30:12.007Z,80.60
2023-04-05T19:32:40.044Z,81.20
2023-04-05T19:35:09.841Z,81.00
2023-04-05T19:37:37.734Z,80.80
2023-04-05T19:40:06.287Z,81.90
2023-04-05T19:42:35.524Z,82.60
2023-04-05T19:45:03.385Z,83.10
2023-04-05T19:47:31.480Z,82.90
2023-04-05T19:50:00.893Z,84.30
2023-04-05T19:52:36.203Z,83.80
2023-04-05T19:55:26.984Z,83.70
2023-04-05T19:57:56.839Z,83.60
2023-04-05T20:00:36.568Z,82.30
2023-04-05T20:03:08.946Z,84.20
2023-04-05T20:05:59.093Z,82.70
2023-04-05T20:08:26.990Z,83.00
2023-04-05T20:10:54.816Z,83.80
2023-04-05T20:13:23.970Z,85.00
2023-04-05T20:15:52.524Z,84.70
2023-04-05T20:18:24.210Z,83.80
2023-04-05T20:20:53.361Z,84.90
2023-04-05T20:23:23.136Z,85.70
2023-04-05T20:25:52.103Z,85.60
2023-04-05T20:28:33.431Z,85.30
2023-04-05T20:31:01.585Z,86.00
2023-04-05T20:33:57.658Z,87.20
2023-04-05T20:36:32.445Z,87.80
2023-04-05T20:39:01.252Z,87.80
2023-04-05T20:41:29.856Z,88.20
2023-04-05T20:43:59.347Z,88.30
2023-04-05T20:46:27.606Z,86.80
2023-04-05T20:48:57.222Z,86.70
2023-04-05T20:51:25.558Z,86.60
2023-04-05T20:53:53.381Z,88.00
2023-04-05T20:56:21.139Z,88.60
2023-04-05T20:58:48.994Z,89.00
2023-04-05T21:01:18.181Z,88.60
2023-04-05T21:03:46.142Z,90.10
2023-04-05T21:06:14.033Z,91.50
2023-04-05T21:08:42.147Z,91.60
2023-04-05T21:11:11.756Z,91.00
2023-04-05T21:13:41.211Z,90.80
2023-04-05T21:16:09.455Z,89.80
2023-04-05T21:18:38.716Z,90.70
2023-04-05T21:21:06.650Z,89.90
2023-04-05T21:23:34.924Z,89.20
2023-04-05T21:26:04.176Z,90.90
2023-04-05T21:28:32.085Z,91.10
2023-04-05T21:30:59.887Z,92.60
2023-04-05T21:33:27.708Z,94.00
2023-04-05T21:35:56.943Z,95.20
2023-04-05T21:38:24.774Z,96.10
2023-04-05T21:40:52.579Z,97.30
2023-04-05T21:43:20.364Z,97.90
2023-04-05T21:45:48.182Z,99.50
2023-04-05T21:48:15.976Z,99.90
2023-04-05T21:50:43.751Z,99.90
2023-04-05T21:53:12.900Z,99.90
2023-04-05T21:55:40.774Z,99.90
2023-04-05T21:58:08.569Z,99.90
2023-04-05T22:00:36.728Z,99.90
2023-04-05T22:03:04.720Z,99.90
2023-04-05T22:05:38.177Z,99.90
2023-04-05T22:08:07.895Z,99.90
2023-04-05T22:10:37.888Z,99.90
2023-04-05T22:13:06.012Z,99.90
2023-04-05T22:15:34.394Z,99.90
2023-04-05T22:18:02.730Z,99.90
2023-04-05T22:20:31.191Z,99.90
2023-04-05T22:22:59.019Z,99.90
2023-04-05T22:25:27.055Z,99.90
2023-04-05T22:27:59.865Z,99.90
2023-04-05T22:30:28.531Z,99.90
2023-04-05T22:32:56.555Z,99.90
2023-04-05T22:35:24.464Z,99.90
2023-04-05T22:37:52.289Z,99.90
2023-04-05T22:40:26.144Z,99.90
2023-04-05T22:42:53.911Z,99.90
2023-04-05T22:45:23.541Z,99.90
2023-04-05T22:47:51.617Z,99.90
2023-04-05T22:50:19.661Z,99.90
2023-04-05T22:52:47.460Z,99.90
2023-04-05T22:55:15.555Z,99.90
2023-04-05T22:57:43.347Z,99.90
2023-04-05T23:00:12.697Z,99.90
2023-04-05T23:02:41.913Z,99.90
2023-04-05T23:05:10.466Z,99.90
2023-04-05T23:07:38.255Z,99.90
2023-04-05T23:10:06.657Z,99.90
2023-04-05T23:12:34.435Z,99.90
2023-04-05T23:15:02.174Z,99.90
2023-04-05T23:17:30.290Z,99.90
2023-04-05T23:19:59.447Z,99.90
2023-04-05T23:22:27.387Z,99.90
2023-04-05T23:24:55.200Z,99.90
2023-04-05T23:27:22.964Z,99.90
2023-04-05T23:29:50.707Z,99.90
2023-04-05T23:32:18.462Z,99.90
2023-04-05T23:34:46.249Z,99.90
2023-04-05T23:37:15.595Z,99.90
2023-04-05T23:39:43.599Z,99.90
2023-04-05T23:42:11.504Z,99.90
2023-04-05T23:44:39.613Z,99.90
2023-04-05T23:47:07.372Z,99.90
2023-04-05T23:49:35.165Z,99.90
2023-04-05T23:52:02.901Z,99.90
2023-04-05T23:54:32.134Z,99.90
2023-04-05T23:56:59.907Z,99.90
2023-04-05T23:59:27.722Z,99.90
